createdAt,value
2022-11-30T00:01:24.519Z,3.84
2022-11-30T00:03:55.568Z,3.86
2022-11-30T00:06:23.516Z,3.87
2022-11-30T00:08:58.065Z,3.90
2022-11-30T00:11:28.457Z,3.92
2022-11-30T00:13:56.312Z,3.93
2022-11-30T00:16:23.572Z,3.92
2022-11-30T00:18:51.130Z,3.93
2022-11-30T00:21:19.552Z,3.92
2022-11-30T00:23:47.796Z,3.79
2022-11-30T00:26:16.850Z,3.79
2022-11-30T00:28:45.920Z,3.79
2022-11-30T00:31:15.911Z,3.82
2022-11-30T00:33:43.540Z,3.83
2022-11-30T00:36:16.770Z,3.78
2022-11-30T00:38:44.392Z,3.77
2022-11-30T00:41:11.539Z,3.77
2022-11-30T00:43:38.795Z,3.70
2022-11-30T00:46:06.204Z,3.69
2022-11-30T00:48:33.619Z,3.66
2022-11-30T00:51:00.489Z,3.70
2022-11-30T00:53:27.366Z,3.56
2022-11-30T00:55:54.447Z,3.55
2022-11-30T00:58:22.239Z,3.52
2022-11-30T01:00:49.104Z,3.47
2022-11-30T01:03:15.805Z,3.47
2022-11-30T01:05:43.405Z,3.50
2022-11-30T01:08:11.747Z,3.54
2022-11-30T01:10:40.051Z,3.57
2022-11-30T01:13:07.636Z,3.58
2022-11-30T01:15:40.155Z,3.65
2022-11-30T01:18:07.017Z,3.64
2022-11-30T01:20:34.011Z,3.63
2022-11-30T01:23:01.098Z,3.62
2022-11-30T01:25:27.818Z,3.61
2022-11-30T01:27:54.485Z,3.57
2022-11-30T01:30:21.138Z,3.54
2022-11-30T01:32:47.810Z,3.55
2022-11-30T01:35:14.764Z,3.53
2022-11-30T01:37:41.536Z,3.52
2022-11-30T01:40:10.254Z,3.49
2022-11-30T01:42:38.091Z,3.42
2022-11-30T01:45:06.725Z,3.43
2022-11-30T01:47:39.252Z,3.38
2022-11-30T01:50:11.304Z,3.28
2022-11-30T01:52:48.504Z,3.18
2022-11-30T01:55:21.553Z,3.17
2022-11-30T01:57:52.815Z,3.18
2022-11-30T02:00:20.212Z,3.13
2022-11-30T02:02:56.956Z,3.06
2022-11-30T02:05:25.927Z,3.02
2022-11-30T02:07:53.132Z,2.99
2022-11-30T02:10:26.653Z,3.08
2022-11-30T02:13:06.256Z,3.13
2022-11-30T02:15:49.627Z,3.09
2022-11-30T02:18:25.701Z,3.09
2022-11-30T02:21:17.242Z,2.98
2022-11-30T02:24:02.772Z,2.94
2022-11-30T02:26:48.141Z,2.88
2022-11-30T02:29:38.263Z,2.88
2022-11-30T02:32:30.564Z,2.88
2022-11-30T02:35:01.375Z,2.85
2022-11-30T02:37:29.979Z,2.79
2022-11-30T02:39:57.987Z,2.72
2022-11-30T02:42:24.644Z,2.64
2022-11-30T02:44:53.265Z,2.59
2022-11-30T02:47:38.139Z,2.64
2022-11-30T02:50:33.956Z,2.62
2022-11-30T02:53:01.050Z,2.67
2022-11-30T02:55:28.628Z,2.51
2022-11-30T02:57:55.271Z,2.46
2022-11-30T03:00:22.363Z,2.47
2022-11-30T03:02:49.980Z,2.31
2022-11-30T03:05:16.693Z,2.29
2022-11-30T03:07:43.441Z,2.27
2022-11-30T03:10:10.287Z,2.23
2022-11-30T03:12:37.280Z,2.27
2022-11-30T03:15:05.087Z,2.35
2022-11-30T03:17:31.802Z,2.28
2022-11-30T03:19:58.500Z,2.34
2022-11-30T03:22:25.164Z,2.33
2022-11-30T03:24:51.796Z,2.39
2022-11-30T03:27:18.716Z,2.37
2022-11-30T03:29:45.344Z,2.36
2022-11-30T03:32:12.024Z,2.32
2022-11-30T03:34:38.659Z,2.40
2022-11-30T03:37:05.364Z,2.51
2022-11-30T03:39:31.977Z,2.55
2022-11-30T03:41:58.655Z,2.57
2022-11-30T03:44:25.322Z,2.58
2022-11-30T03:46:52.035Z,2.63
2022-11-30T03:49:18.697Z,2.66
2022-11-30T03:51:45.371Z,2.72
2022-11-30T03:54:12.063Z,2.72
2022-11-30T03:56:38.800Z,2.71
2022-11-30T03:59:05.457Z,2.67
2022-11-30T04:01:33.012Z,2.70
2022-11-30T04:03:59.671Z,2.71
2022-11-30T04:06:26.368Z,2.66
2022-11-30T04:08:53.020Z,2.72
2022-11-30T04:11:19.730Z,2.75
2022-11-30T04:13:46.432Z,2.77
2022-11-30T04:16:13.125Z,2.81
2022-11-30T04:18:39.939Z,2.82
2022-11-30T04:21:07.333Z,2.80
2022-11-30T04:23:39.523Z,2.82
2022-11-30T04:26:10.848Z,2.83
2022-11-30T04:28:37.598Z,2.83
2022-11-30T04:31:04.695Z,2.84
2022-11-30T04:33:31.771Z,2.81
2022-11-30T04:36:00.515Z,2.79
2022-11-30T04:38:28.083Z,2.81
2022-11-30T04:40:55.069Z,2.81
2022-11-30T04:43:22.263Z,2.72
2022-11-30T04:45:49.250Z,2.72
2022-11-30T04:48:16.657Z,2.72
2022-11-30T04:50:43.506Z,2.74
2022-11-30T04:53:10.903Z,2.73
2022-11-30T04:55:38.365Z,2.76
2022-11-30T04:58:05.761Z,2.72
2022-11-30T05:00:32.551Z,2.67
2022-11-30T05:02:59.212Z,2.71
2022-11-30T05:05:25.896Z,2.74
2022-11-30T05:07:58.593Z,2.80
2022-11-30T05:10:27.086Z,2.89
2022-11-30T05:12:53.957Z,2.84
2022-11-30T05:15:21.741Z,2.84
2022-11-30T05:17:48.637Z,2.79
2022-11-30T05:20:15.557Z,2.70
2022-11-30T05:22:42.257Z,2.67
2022-11-30T05:25:09.808Z,2.61
2022-11-30T05:27:37.458Z,2.55
2022-11-30T05:30:05.401Z,2.47
2022-11-30T05:32:32.128Z,2.48
2022-11-30T05:34:58.920Z,2.51
2022-11-30T05:37:25.818Z,2.44
2022-11-30T05:39:52.485Z,2.44
2022-11-30T05:42:19.249Z,2.46
2022-11-30T05:44:46.220Z,2.51
2022-11-30T05:47:13.459Z,2.61
2022-11-30T05:49:40.144Z,2.70
2022-11-30T05:52:06.811Z,2.68
2022-11-30T05:54:34.461Z,2.67
2022-11-30T05:57:01.323Z,2.67
2022-11-30T05:59:27.969Z,2.72
2022-11-30T06:01:54.766Z,2.70
2022-11-30T06:04:21.783Z,2.70
2022-11-30T06:06:49.643Z,2.72
2022-11-30T06:09:16.704Z,2.71
2022-11-30T06:11:43.407Z,2.70
2022-11-30T06:14:10.083Z,2.73
2022-11-30T06:16:39.698Z,2.70
2022-11-30T06:19:07.052Z,2.75
2022-11-30T06:21:33.796Z,2.81
2022-11-30T06:24:00.487Z,2.84
2022-11-30T06:26:27.145Z,2.89
2022-11-30T06:28:53.849Z,2.89
2022-11-30T06:31:20.617Z,2.90
2022-11-30T06:33:47.344Z,2.94
2022-11-30T06:36:14.020Z,2.91
2022-11-30T06:38:40.732Z,2.85
2022-11-30T06:41:09.794Z,2.77
2022-11-30T06:43:38.550Z,2.78
2022-11-30T06:46:06.504Z,2.85
2022-11-30T06:48:33.948Z,2.88
2022-11-30T06:51:01.355Z,2.87
2022-11-30T06:53:28.193Z,2.83
2022-11-30T06:55:54.916Z,2.81
2022-11-30T06:58:21.948Z,2.79
2022-11-30T07:00:48.878Z,2.77
2022-11-30T07:03:15.726Z,2.75
2022-11-30T07:05:44.499Z,2.70
2022-11-30T07:08:16.326Z,2.77
2022-11-30T07:10:47.506Z,2.82
2022-11-30T07:13:17.199Z,2.85
2022-11-30T07:15:44.605Z,2.87
2022-11-30T07:18:11.842Z,2.88
2022-11-30T07:20:39.447Z,2.91
2022-11-30T07:23:25.661Z,2.87
2022-11-30T07:26:09.336Z,2.88
2022-11-30T07:28:41.042Z,2.88
2022-11-30T07:31:28.460Z,2.92
2022-11-30T07:33:56.982Z,2.80
2022-11-30T07:36:25.618Z,2.77
2022-11-30T07:38:52.492Z,2.80
2022-11-30T07:41:19.356Z,2.77
2022-11-30T07:43:46.057Z,2.68
2022-11-30T07:46:14.702Z,2.66
2022-11-30T07:48:42.715Z,2.68
2022-11-30T07:51:14.999Z,2.71
2022-11-30T07:53:41.975Z,2.70
2022-11-30T07:56:11.872Z,2.70
2022-11-30T07:58:39.284Z,2.70
2022-11-30T08:01:24.079Z,2.64
2022-11-30T08:03:51.995Z,2.67
2022-11-30T08:06:21.020Z,2.77
2022-11-30T08:08:50.437Z,2.71
2022-11-30T08:11:20.865Z,2.67
2022-11-30T08:13:47.957Z,2.67
2022-11-30T08:16:17.369Z,2.66
2022-11-30T08:18:44.123Z,2.65
2022-11-30T08:21:12.972Z,2.64
2022-11-30T08:23:42.196Z,2.62
2022-11-30T08:26:32.296Z,2.64
2022-11-30T08:29:00.769Z,2.61
2022-11-30T08:31:35.476Z,2.58
2022-11-30T08:34:13.350Z,2.61
2022-11-30T08:36:41.053Z,2.58
2022-11-30T08:39:11.812Z,2.54
2022-11-30T08:41:39.341Z,2.54
2022-11-30T08:44:06.577Z,2.63
2022-11-30T08:49:22.997Z,2.68
2022-11-30T08:52:16.310Z,2.71
2022-11-30T08:54:42.852Z,2.72
2022-11-30T08:57:09.705Z,2.75
2022-11-30T08:59:36.875Z,2.86
2022-11-30T09:02:03.540Z,2.91
2022-11-30T09:04:30.226Z,2.96
2022-11-30T09:06:59.297Z,2.89
2022-11-30T09:09:26.534Z,2.88
2022-11-30T09:11:53.281Z,2.94
2022-11-30T09:14:19.965Z,2.97
2022-11-30T09:16:46.686Z,3.04
2022-11-30T09:19:13.463Z,3.13
2022-11-30T09:21:40.189Z,3.23
2022-11-30T09:24:07.121Z,3.30
2022-11-30T09:26:33.812Z,3.39
2022-11-30T09:29:00.632Z,3.46
2022-11-30T09:31:27.651Z,3.60
2022-11-30T09:33:57.215Z,3.69
2022-11-30T09:36:27.263Z,3.78
2022-11-30T09:38:55.154Z,3.87
2022-11-30T09:41:30.892Z,3.84
2022-11-30T09:44:00.182Z,3.84
2022-11-30T09:46:35.978Z,3.81
2022-11-30T09:49:12.221Z,3.77
2022-11-30T09:51:49.282Z,3.83
2022-11-30T09:54:35.600Z,3.73
2022-11-30T09:57:20.997Z,3.69
2022-11-30T09:59:57.694Z,3.68
2022-11-30T10:02:38.509Z,3.61
2022-11-30T10:05:21.158Z,3.54
2022-11-30T10:08:03.781Z,3.50
2022-11-30T10:10:51.075Z,3.44
2022-11-30T10:13:42.275Z,3.29
2022-11-30T10:16:12.036Z,3.18
2022-11-30T10:19:05.590Z,3.15
2022-11-30T10:21:44.486Z,3.15
2022-11-30T10:24:24.914Z,3.12
2022-11-30T10:27:11.996Z,3.23
2022-11-30T10:29:42.039Z,3.20
2022-11-30T10:32:25.088Z,3.25
2022-11-30T10:35:01.861Z,3.24
2022-11-30T10:37:36.215Z,3.30
2022-11-30T10:40:38.861Z,3.27
2022-11-30T10:43:19.601Z,3.23
2022-11-30T10:45:48.929Z,3.23
2022-11-30T10:48:24.477Z,3.27
2022-11-30T10:50:52.264Z,3.30
2022-11-30T10:53:19.162Z,3.34
2022-11-30T10:56:06.093Z,3.33
2022-11-30T10:59:03.698Z,3.23
2022-11-30T11:01:39.728Z,3.22
2022-11-30T11:04:12.507Z,3.30
2022-11-30T11:06:50.204Z,3.31
2022-11-30T11:09:46.785Z,3.30
2022-11-30T11:12:28.457Z,3.33
2022-11-30T11:15:19.914Z,3.38
2022-11-30T11:17:46.931Z,3.38
2022-11-30T11:20:34.161Z,3.40
2022-11-30T11:23:01.877Z,3.39
2022-11-30T11:25:36.811Z,3.32
2022-11-30T11:28:15.407Z,3.24
2022-11-30T11:30:42.410Z,3.14
2022-11-30T11:33:12.270Z,3.14
2022-11-30T11:35:39.066Z,3.23
2022-11-30T11:38:24.648Z,3.24
2022-11-30T11:41:17.326Z,3.16
2022-11-30T11:44:13.680Z,3.09
2022-11-30T11:46:57.558Z,3.27
2022-11-30T11:49:30.231Z,3.39
2022-11-30T11:52:13.681Z,3.48
2022-11-30T11:54:51.954Z,3.55
2022-11-30T11:57:23.133Z,3.58
2022-11-30T12:00:16.360Z,3.60
2022-11-30T12:03:06.846Z,3.62
2022-11-30T12:05:41.109Z,3.70
2022-11-30T12:08:13.246Z,3.69
2022-11-30T12:11:00.733Z,3.78
2022-11-30T12:13:37.922Z,3.84
2022-11-30T12:16:19.897Z,3.84
2022-11-30T12:18:49.665Z,3.83
2022-11-30T12:21:27.514Z,3.86
2022-11-30T12:24:16.122Z,3.91
2022-11-30T12:26:53.332Z,3.93
2022-11-30T12:29:58.431Z,3.95
2022-11-30T12:32:53.972Z,3.82
2022-11-30T12:35:27.734Z,3.82
2022-11-30T12:38:01.792Z,3.84
2022-11-30T12:40:35.882Z,3.85
2022-11-30T12:43:34.376Z,3.84
2022-11-30T12:46:15.088Z,3.79
2022-11-30T12:48:47.165Z,3.85
2022-11-30T12:51:39.654Z,3.79
2022-11-30T12:54:21.896Z,3.73
2022-11-30T12:57:07.111Z,3.73
2022-11-30T12:59:53.453Z,3.75
2022-11-30T13:02:39.935Z,3.78
2022-11-30T13:05:13.948Z,3.86
2022-11-30T13:07:46.458Z,3.86
2022-11-30T13:10:40.258Z,3.81
2022-11-30T13:13:15.040Z,3.71
2022-11-30T13:15:44.435Z,3.72
2022-11-30T13:18:24.372Z,3.82
2022-11-30T13:21:16.868Z,3.89
2022-11-30T13:24:14.547Z,3.91
2022-11-30T13:26:47.610Z,3.94
2022-11-30T13:29:39.068Z,3.95
2022-11-30T13:32:33.983Z,3.97
2022-11-30T13:35:29.508Z,4.00
2022-11-30T13:38:34.710Z,3.97
2022-11-30T13:41:04.556Z,4.01
2022-11-30T13:43:36.842Z,4.06
2022-11-30T13:46:07.789Z,4.06
2022-11-30T13:48:40.545Z,3.97
2022-11-30T13:51:07.892Z,3.90
2022-11-30T13:53:38.698Z,3.90
2022-11-30T13:56:27.230Z,3.91
2022-11-30T13:59:32.036Z,3.76
2022-11-30T14:02:42.961Z,3.73
2022-11-30T14:05:22.809Z,3.56
2022-11-30T14:07:52.739Z,3.45
2022-11-30T14:10:31.122Z,3.38
2022-11-30T14:13:28.217Z,3.31
2022-11-30T14:15:58.027Z,3.29
2022-11-30T14:18:38.416Z,3.26
2022-11-30T14:21:26.070Z,3.18
2022-11-30T14:24:01.573Z,3.07
2022-11-30T14:26:40.478Z,3.03
2022-11-30T14:29:07.503Z,3.04
2022-11-30T14:31:42.532Z,3.03
2022-11-30T14:34:50.184Z,3.04
2022-11-30T14:37:27.201Z,3.05
2022-11-30T14:39:58.214Z,3.11
2022-11-30T14:42:28.023Z,3.12
2022-11-30T14:44:56.740Z,3.16
2022-11-30T14:47:28.978Z,3.19
2022-11-30T14:49:58.148Z,3.17
2022-11-30T14:52:47.467Z,3.22
2022-11-30T14:55:20.474Z,3.24
2022-11-30T14:58:02.687Z,3.20
2022-11-30T15:00:38.316Z,3.18
2022-11-30T15:03:18.402Z,3.08
2022-11-30T15:05:45.204Z,3.03
2022-11-30T15:08:15.178Z,3.03
2022-11-30T15:10:42.885Z,3.08
2022-11-30T15:13:16.765Z,3.06
2022-11-30T15:15:55.197Z,3.12
2022-11-30T15:18:24.630Z,3.04
2022-11-30T15:21:12.836Z,3.13
2022-11-30T15:23:39.638Z,3.03
2022-11-30T15:26:18.849Z,3.05
2022-11-30T15:28:54.020Z,3.05
2022-11-30T15:31:21.200Z,3.08
2022-11-30T15:33:50.349Z,3.12
2022-11-30T15:36:32.332Z,3.14
2022-11-30T15:39:04.773Z,3.18
2022-11-30T15:41:33.209Z,3.16
2022-11-30T15:44:02.123Z,3.09
2022-11-30T15:46:46.353Z,3.12
2022-11-30T15:49:25.881Z,3.17
2022-11-30T15:52:10.916Z,3.18
2022-11-30T15:54:49.219Z,3.20
2022-11-30T15:57:17.256Z,3.16
2022-11-30T15:59:44.170Z,3.16
2022-11-30T16:02:37.184Z,3.11
2022-11-30T16:05:08.422Z,3.03
2022-11-30T16:08:02.876Z,2.96
2022-11-30T16:10:37.912Z,3.03
2022-11-30T16:13:05.741Z,3.11
2022-11-30T16:15:35.554Z,3.05
2022-11-30T16:18:08.456Z,3.07
2022-11-30T16:20:35.221Z,3.02
2022-11-30T16:23:05.720Z,2.99
2022-11-30T16:25:32.863Z,2.91
2022-11-30T16:27:59.646Z,2.97
2022-11-30T16:30:26.320Z,2.95
2022-11-30T16:32:53.060Z,2.98
2022-11-30T16:35:35.120Z,3.03
2022-11-30T16:38:01.885Z,3.01
2022-11-30T16:40:30.755Z,2.97
2022-11-30T16:43:00.731Z,2.91
2022-11-30T16:45:36.005Z,2.96
2022-11-30T16:48:02.968Z,2.91
2022-11-30T16:50:31.488Z,2.91
2022-11-30T16:52:58.820Z,2.88
2022-11-30T16:55:30.885Z,2.74
2022-11-30T16:57:58.692Z,2.71
2022-11-30T17:00:25.500Z,2.61
2022-11-30T17:03:03.931Z,2.54
2022-11-30T17:05:31.934Z,2.48
2022-11-30T17:07:58.600Z,2.47
2022-11-30T17:10:25.305Z,2.47
2022-11-30T17:12:52.017Z,2.48
2022-11-30T17:15:23.627Z,2.40
2022-11-30T17:17:50.364Z,2.32
2022-11-30T17:20:18.141Z,2.42
2022-11-30T17:22:45.206Z,2.44
2022-11-30T17:25:17.085Z,2.38
2022-11-30T17:27:44.469Z,2.34
2022-11-30T17:30:13.897Z,2.23
2022-11-30T17:32:40.661Z,2.44
2022-11-30T17:35:08.919Z,2.42
2022-11-30T17:37:36.291Z,2.53
2022-11-30T17:40:04.178Z,2.58
2022-11-30T17:42:31.193Z,2.57
2022-11-30T17:44:57.945Z,2.56
2022-11-30T17:47:24.874Z,2.58
2022-11-30T17:49:51.684Z,2.63
2022-11-30T17:52:18.601Z,2.69
2022-11-30T17:54:45.436Z,2.70
2022-11-30T17:57:12.391Z,2.67
2022-11-30T17:59:39.062Z,2.70
2022-11-30T18:02:06.264Z,2.69
2022-11-30T18:04:32.908Z,2.70
2022-11-30T18:06:59.645Z,2.61
2022-11-30T18:09:26.316Z,2.54
2022-11-30T18:11:53.104Z,2.46
2022-11-30T18:14:19.770Z,2.46
2022-11-30T18:16:46.635Z,2.49
2022-11-30T18:19:14.991Z,2.36
2022-11-30T18:21:44.223Z,2.31
2022-11-30T18:24:12.341Z,2.34
2022-11-30T18:26:39.586Z,2.39
2022-11-30T18:29:07.217Z,2.34
2022-11-30T18:31:33.952Z,2.32
2022-11-30T18:34:03.431Z,2.22
2022-11-30T18:36:31.221Z,2.20
2022-11-30T18:38:58.301Z,2.30
2022-11-30T18:41:26.422Z,2.33
2022-11-30T18:43:53.740Z,2.27
2022-11-30T18:46:20.722Z,2.27
2022-11-30T18:48:52.010Z,2.29
2022-11-30T18:51:27.450Z,2.36
2022-11-30T18:53:57.837Z,2.24
2022-11-30T18:56:26.163Z,2.32
2022-11-30T18:58:57.672Z,2.27
2022-11-30T19:01:25.304Z,2.25
2022-11-30T19:03:53.504Z,2.23
2022-11-30T19:06:20.680Z,2.18
2022-11-30T19:08:48.140Z,2.22
2022-11-30T19:11:15.945Z,2.21
2022-11-30T19:13:43.254Z,2.19
2022-11-30T19:16:15.864Z,2.17
2022-11-30T19:18:45.065Z,2.24
2022-11-30T19:21:18.567Z,2.22
2022-11-30T19:23:46.200Z,2.29
2022-11-30T19:26:14.363Z,2.22
2022-11-30T19:28:42.600Z,2.17
2022-11-30T19:31:17.641Z,2.19
2022-11-30T19:33:47.456Z,2.18
2022-11-30T19:36:17.655Z,2.15
2022-11-30T19:38:44.918Z,2.19
2022-11-30T19:41:13.481Z,2.21
2022-11-30T19:43:40.545Z,2.21
2022-11-30T19:46:16.145Z,2.20
2022-11-30T19:48:44.754Z,2.21
2022-11-30T19:51:18.000Z,2.23
2022-11-30T19:53:45.484Z,2.30
2022-11-30T19:56:14.865Z,2.33
2022-11-30T19:58:46.243Z,2.27
2022-11-30T20:01:14.283Z,2.17
2022-11-30T20:03:41.255Z,2.22
2022-11-30T20:06:08.013Z,2.23
2022-11-30T20:08:34.702Z,2.27
2022-11-30T20:11:05.209Z,2.27
2022-11-30T20:13:31.947Z,2.27
2022-11-30T20:15:58.674Z,2.24
2022-11-30T20:18:25.433Z,2.26
2022-11-30T20:20:52.097Z,2.26
2022-11-30T20:23:18.832Z,2.18
2022-11-30T20:25:45.530Z,2.12
2022-11-30T20:28:12.731Z,2.04
2022-11-30T20:30:39.867Z,2.01
2022-11-30T20:33:06.587Z,2.06
2022-11-30T20:35:35.233Z,2.04
2022-11-30T20:38:01.919Z,2.05
2022-11-30T20:40:28.601Z,1.95
2022-11-30T20:42:55.340Z,1.88
2022-11-30T20:45:21.992Z,1.80
2022-11-30T20:47:48.670Z,1.72
2022-11-30T20:50:15.341Z,1.73
2022-11-30T20:52:42.015Z,1.67
2022-11-30T20:55:09.162Z,1.58
2022-11-30T20:57:35.865Z,1.46
2022-11-30T21:00:06.516Z,1.49
2022-11-30T21:02:36.863Z,1.41
2022-11-30T21:05:03.650Z,1.37
2022-11-30T21:07:30.363Z,1.37
2022-11-30T21:09:58.074Z,1.37
2022-11-30T21:12:24.799Z,1.28
2022-11-30T21:14:51.458Z,1.28
2022-11-30T21:17:18.132Z,1.36
2022-11-30T21:19:44.849Z,1.35
2022-11-30T21:22:12.399Z,1.35
2022-11-30T21:24:39.212Z,1.32
2022-11-30T21:27:06.045Z,1.34
2022-11-30T21:29:32.850Z,1.38
2022-11-30T21:31:59.538Z,1.29
2022-11-30T21:34:26.515Z,1.28
2022-11-30T21:36:54.756Z,1.35
2022-11-30T21:39:21.732Z,1.37
2022-11-30T21:41:48.950Z,1.31
2022-11-30T21:44:16.642Z,1.32
2022-11-30T21:46:46.657Z,1.28
2022-11-30T21:49:15.506Z,1.28
2022-11-30T21:51:42.803Z,1.33
2022-11-30T21:54:12.476Z,1.31
2022-11-30T21:56:42.740Z,1.25
2022-11-30T21:59:12.952Z,1.28
2022-11-30T22:01:43.409Z,1.25
2022-11-30T22:04:11.744Z,1.29
2022-11-30T22:06:40.037Z,1.30
2022-11-30T22:09:17.334Z,1.26
2022-11-30T22:11:45.837Z,1.24
2022-11-30T22:14:16.248Z,1.22
2022-11-30T22:16:45.965Z,1.22
2022-11-30T22:19:13.026Z,1.23
2022-11-30T22:21:41.344Z,1.30
2022-11-30T22:24:12.762Z,1.32
2022-11-30T22:26:42.074Z,1.30
2022-11-30T22:29:13.681Z,1.30
2022-11-30T22:31:43.344Z,1.29
2022-11-30T22:34:10.882Z,1.22
2022-11-30T22:36:39.887Z,1.14
2022-11-30T22:39:11.131Z,1.21
2022-11-30T22:41:39.878Z,1.26
2022-11-30T22:44:06.896Z,1.24
2022-11-30T22:46:35.560Z,1.26
2022-11-30T22:49:05.409Z,1.23
2022-11-30T22:51:35.138Z,1.25
2022-11-30T22:54:02.881Z,1.26
2022-11-30T22:56:32.754Z,1.32
2022-11-30T22:59:01.118Z,1.35
2022-11-30T23:01:36.307Z,1.37
2022-11-30T23:04:08.457Z,1.44
2022-11-30T23:06:36.687Z,1.42
2022-11-30T23:09:04.634Z,1.41
2022-11-30T23:11:32.017Z,1.41
2022-11-30T23:13:59.185Z,1.45
2022-11-30T23:16:26.016Z,1.47
2022-11-30T23:18:55.711Z,1.47
2022-11-30T23:21:30.132Z,1.49
2022-11-30T23:23:59.567Z,1.51
2022-11-30T23:26:29.979Z,1.45
2022-11-30T23:29:00.519Z,1.37
2022-11-30T23:31:33.737Z,1.43
2022-11-30T23:34:05.271Z,1.47
2022-11-30T23:36:32.884Z,1.42
2022-11-30T23:39:02.158Z,1.47
2022-11-30T23:41:29.231Z,1.47
2022-11-30T23:43:56.482Z,1.53
2022-11-30T23:46:23.618Z,1.44
2022-11-30T23:48:51.201Z,1.41
2022-11-30T23:51:18.239Z,1.41
2022-11-30T23:53:44.977Z,1.42
2022-11-30T23:56:17.273Z,1.43
2022-11-30T23:58:45.396Z,1.46
